sensor_id;sensor_type;location;lat;lon;timestamp;temperature;humidity
24638;DHT22;12773;50.162;8.548;2023-06-04T00:00:32;17.50;55.60
24638;DHT22;12773;50.162;8.548;2023-06-04T00:03:19;17.50;55.60
24638;DHT22;12773;50.162;8.548;2023-06-04T00:06:07;17.50;55.60
24638;DHT22;12773;50.162;8.548;2023-06-04T00:08:54;17.40;55.70
24638;DHT22;12773;50.162;8.548;2023-06-04T00:11:42;17.40;55.80
24638;DHT22;12773;50.162;8.548;2023-06-04T00:14:31;17.40;55.80
24638;DHT22;12773;50.162;8.548;2023-06-04T00:17:18;17.40;55.80
24638;DHT22;12773;50.162;8.548;2023-06-04T00:20:07;17.40;55.80
24638;DHT22;12773;50.162;8.548;2023-06-04T00:22:54;17.40;55.80
24638;DHT22;12773;50.162;8.548;2023-06-04T00:25:42;17.40;55.80
24638;DHT22;12773;50.162;8.548;2023-06-04T00:28:29;17.30;55.80
24638;DHT22;12773;50.162;8.548;2023-06-04T00:31:17;17.30;55.90
24638;DHT22;12773;50.162;8.548;2023-06-04T00:34:05;17.30;56.00
24638;DHT22;12773;50.162;8.548;2023-06-04T00:36:52;17.20;56.00
24638;DHT22;12773;50.162;8.548;2023-06-04T00:39:39;17.20;56.00
24638;DHT22;12773;50.162;8.548;2023-06-04T00:42:27;17.20;56.20
24638;DHT22;12773;50.162;8.548;2023-06-04T00:45:15;17.20;56.10
24638;DHT22;12773;50.162;8.548;2023-06-04T00:48:04;17.20;56.10
24638;DHT22;12773;50.162;8.548;2023-06-04T00:50:52;17.10;56.20
24638;DHT22;12773;50.162;8.548;2023-06-04T00:53:41;17.00;56.30
24638;DHT22;12773;50.162;8.548;2023-06-04T00:56:28;17.00;56.20
24638;DHT22;12773;50.162;8.548;2023-06-04T00:59:16;17.00;56.40
24638;DHT22;12773;50.162;8.548;2023-06-04T01:02:15;17.00;56.40
24638;DHT22;12773;50.162;8.548;2023-06-04T01:05:14;16.90;56.40
24638;DHT22;12773;50.162;8.548;2023-06-04T01:08:03;16.90;56.50
24638;DHT22;12773;50.162;8.548;2023-06-04T01:10:55;16.90;56.50
24638;DHT22;12773;50.162;8.548;2023-06-04T01:13:42;16.90;56.50
24638;DHT22;12773;50.162;8.548;2023-06-04T01:16:39;16.90;56.70
24638;DHT22;12773;50.162;8.548;2023-06-04T01:25:42;16.80;56.80
24638;DHT22;12773;50.162;8.548;2023-06-04T01:28:33;16.70;56.70
24638;DHT22;12773;50.162;8.548;2023-06-04T01:31:22;16.70;56.80
24638;DHT22;12773;50.162;8.548;2023-06-04T01:34:11;16.70;56.80
24638;DHT22;12773;50.162;8.548;2023-06-04T01:36:58;16.60;56.90
24638;DHT22;12773;50.162;8.548;2023-06-04T01:39:46;16.60;57.00
24638;DHT22;12773;50.162;8.548;2023-06-04T01:42:34;16.60;57.00
24638;DHT22;12773;50.162;8.548;2023-06-04T01:45:22;16.60;57.40
24638;DHT22;12773;50.162;8.548;2023-06-04T01:48:10;16.60;57.00
24638;DHT22;12773;50.162;8.548;2023-06-04T01:50:58;16.50;57.00
24638;DHT22;12773;50.162;8.548;2023-06-04T01:53:46;16.50;57.10
24638;DHT22;12773;50.162;8.548;2023-06-04T01:56:34;16.50;57.10
24638;DHT22;12773;50.162;8.548;2023-06-04T01:59:22;16.50;57.20
24638;DHT22;12773;50.162;8.548;2023-06-04T02:02:09;16.50;57.50
24638;DHT22;12773;50.162;8.548;2023-06-04T02:04:56;16.50;57.30
24638;DHT22;12773;50.162;8.548;2023-06-04T02:07:45;16.40;57.20
24638;DHT22;12773;50.162;8.548;2023-06-04T02:10:34;16.40;57.40
24638;DHT22;12773;50.162;8.548;2023-06-04T02:13:22;16.30;57.50
24638;DHT22;12773;50.162;8.548;2023-06-04T02:16:09;16.40;57.50
24638;DHT22;12773;50.162;8.548;2023-06-04T02:18:57;16.40;57.50
24638;DHT22;12773;50.162;8.548;2023-06-04T02:21:45;16.30;57.50
24638;DHT22;12773;50.162;8.548;2023-06-04T02:24:33;16.40;57.80
24638;DHT22;12773;50.162;8.548;2023-06-04T02:27:21;16.30;57.50
24638;DHT22;12773;50.162;8.548;2023-06-04T02:30:09;16.30;57.80
24638;DHT22;12773;50.162;8.548;2023-06-04T02:32:57;16.30;57.80
24638;DHT22;12773;50.162;8.548;2023-06-04T02:35:46;16.30;58.00
24638;DHT22;12773;50.162;8.548;2023-06-04T02:38:34;16.20;57.90
24638;DHT22;12773;50.162;8.548;2023-06-04T02:41:23;16.20;58.60
24638;DHT22;12773;50.162;8.548;2023-06-04T02:44:12;16.20;58.70
24638;DHT22;12773;50.162;8.548;2023-06-04T02:46:59;16.10;59.00
24638;DHT22;12773;50.162;8.548;2023-06-04T02:49:47;16.10;58.50
24638;DHT22;12773;50.162;8.548;2023-06-04T02:52:35;16.00;59.40
24638;DHT22;12773;50.162;8.548;2023-06-04T02:55:23;16.00;58.90
24638;DHT22;12773;50.162;8.548;2023-06-04T02:58:11;16.00;58.60
24638;DHT22;12773;50.162;8.548;2023-06-04T03:01:00;16.00;59.00
24638;DHT22;12773;50.162;8.548;2023-06-04T03:03:47;15.90;59.60
24638;DHT22;12773;50.162;8.548;2023-06-04T03:06:35;15.90;59.30
24638;DHT22;12773;50.162;8.548;2023-06-04T03:09:24;15.90;58.60
24638;DHT22;12773;50.162;8.548;2023-06-04T03:12:11;15.90;58.90
24638;DHT22;12773;50.162;8.548;2023-06-04T03:14:59;15.80;58.70
24638;DHT22;12773;50.162;8.548;2023-06-04T03:17:47;15.80;59.20
24638;DHT22;12773;50.162;8.548;2023-06-04T03:20:35;15.80;59.10
24638;DHT22;12773;50.162;8.548;2023-06-04T03:23:24;15.80;59.60
24638;DHT22;12773;50.162;8.548;2023-06-04T03:26:12;15.70;59.30
24638;DHT22;12773;50.162;8.548;2023-06-04T03:29:00;15.70;59.60
24638;DHT22;12773;50.162;8.548;2023-06-04T03:31:47;15.60;59.90
24638;DHT22;12773;50.162;8.548;2023-06-04T03:34:35;15.50;59.90
24638;DHT22;12773;50.162;8.548;2023-06-04T03:37:23;15.40;61.10
24638;DHT22;12773;50.162;8.548;2023-06-04T03:40:11;15.30;61.20
24638;DHT22;12773;50.162;8.548;2023-06-04T03:42:58;15.30;61.90
24638;DHT22;12773;50.162;8.548;2023-06-04T03:45:46;15.30;61.70
24638;DHT22;12773;50.162;8.548;2023-06-04T03:48:34;15.20;61.90
24638;DHT22;12773;50.162;8.548;2023-06-04T03:51:22;15.20;62.10
24638;DHT22;12773;50.162;8.548;2023-06-04T03:54:09;15.10;62.60
24638;DHT22;12773;50.162;8.548;2023-06-04T03:56:58;15.00;62.70
24638;DHT22;12773;50.162;8.548;2023-06-04T03:59:46;15.00;62.70
24638;DHT22;12773;50.162;8.548;2023-06-04T04:02:34;15.10;62.80
24638;DHT22;12773;50.162;8.548;2023-06-04T04:05:23;15.10;63.20
24638;DHT22;12773;50.162;8.548;2023-06-04T04:08:11;15.10;62.70
24638;DHT22;12773;50.162;8.548;2023-06-04T04:11:00;15.20;63.20
24638;DHT22;12773;50.162;8.548;2023-06-04T04:13:48;15.30;63.60
24638;DHT22;12773;50.162;8.548;2023-06-04T04:16:36;15.30;62.60
24638;DHT22;12773;50.162;8.548;2023-06-04T04:19:23;15.40;62.20
24638;DHT22;12773;50.162;8.548;2023-06-04T04:22:11;15.60;62.00
24638;DHT22;12773;50.162;8.548;2023-06-04T04:24:59;15.70;61.00
24638;DHT22;12773;50.162;8.548;2023-06-04T04:27:47;15.80;61.10
24638;DHT22;12773;50.162;8.548;2023-06-04T04:30:35;15.90;60.50
24638;DHT22;12773;50.162;8.548;2023-06-04T04:33:23;16.00;60.10
24638;DHT22;12773;50.162;8.548;2023-06-04T04:36:11;16.20;59.90
24638;DHT22;12773;50.162;8.548;2023-06-04T04:39:02;16.30;59.90
24638;DHT22;12773;50.162;8.548;2023-06-04T04:41:49;16.30;59.70
24638;DHT22;12773;50.162;8.548;2023-06-04T04:44:37;16.40;59.50
24638;DHT22;12773;50.162;8.548;2023-06-04T04:47:25;16.50;59.50
24638;DHT22;12773;50.162;8.548;2023-06-04T04:50:12;16.60;59.50
24638;DHT22;12773;50.162;8.548;2023-06-04T04:53:00;16.60;59.20
24638;DHT22;12773;50.162;8.548;2023-06-04T04:55:49;16.70;59.40
24638;DHT22;12773;50.162;8.548;2023-06-04T04:58:36;16.80;58.90
24638;DHT22;12773;50.162;8.548;2023-06-04T05:01:25;16.80;59.00
24638;DHT22;12773;50.162;8.548;2023-06-04T05:04:12;16.90;59.10
24638;DHT22;12773;50.162;8.548;2023-06-04T05:07:00;17.10;58.70
24638;DHT22;12773;50.162;8.548;2023-06-04T05:09:47;17.10;58.60
24638;DHT22;12773;50.162;8.548;2023-06-04T05:12:34;17.20;58.60
24638;DHT22;12773;50.162;8.548;2023-06-04T05:15:22;17.30;58.80
24638;DHT22;12773;50.162;8.548;2023-06-04T05:18:11;17.40;59.00
24638;DHT22;12773;50.162;8.548;2023-06-04T05:20:58;17.50;58.00
24638;DHT22;12773;50.162;8.548;2023-06-04T05:23:47;17.50;58.30
24638;DHT22;12773;50.162;8.548;2023-06-04T05:26:35;17.60;58.30
24638;DHT22;12773;50.162;8.548;2023-06-04T05:29:23;17.60;58.10
24638;DHT22;12773;50.162;8.548;2023-06-04T05:32:11;17.70;58.30
24638;DHT22;12773;50.162;8.548;2023-06-04T05:34:59;17.80;58.60
24638;DHT22;12773;50.162;8.548;2023-06-04T05:37:46;17.90;58.70
24638;DHT22;12773;50.162;8.548;2023-06-04T05:40:35;18.00;59.20
24638;DHT22;12773;50.162;8.548;2023-06-04T05:43:23;18.10;58.40
24638;DHT22;12773;50.162;8.548;2023-06-04T05:46:10;18.20;57.70
24638;DHT22;12773;50.162;8.548;2023-06-04T05:48:57;18.30;59.10
24638;DHT22;12773;50.162;8.548;2023-06-04T05:51:45;18.40;57.90
24638;DHT22;12773;50.162;8.548;2023-06-04T05:54:32;18.40;57.70
24638;DHT22;12773;50.162;8.548;2023-06-04T05:57:20;18.50;58.30
24638;DHT22;12773;50.162;8.548;2023-06-04T06:00:08;18.60;58.50
24638;DHT22;12773;50.162;8.548;2023-06-04T06:02:57;18.70;59.40
24638;DHT22;12773;50.162;8.548;2023-06-04T06:05:44;18.60;58.20
24638;DHT22;12773;50.162;8.548;2023-06-04T06:08:32;18.70;58.10
24638;DHT22;12773;50.162;8.548;2023-06-04T06:11:20;18.80;58.30
24638;DHT22;12773;50.162;8.548;2023-06-04T06:14:08;18.70;58.30
24638;DHT22;12773;50.162;8.548;2023-06-04T06:16:57;18.60;58.30
24638;DHT22;12773;50.162;8.548;2023-06-04T06:19:44;18.70;59.20
24638;DHT22;12773;50.162;8.548;2023-06-04T06:22:32;18.70;59.50
24638;DHT22;12773;50.162;8.548;2023-06-04T06:25:20;18.80;59.30
24638;DHT22;12773;50.162;8.548;2023-06-04T06:28:07;18.80;59.60
24638;DHT22;12773;50.162;8.548;2023-06-04T06:30:55;18.90;60.00
24638;DHT22;12773;50.162;8.548;2023-06-04T06:33:43;18.80;59.60
24638;DHT22;12773;50.162;8.548;2023-06-04T06:36:30;18.90;59.30
24638;DHT22;12773;50.162;8.548;2023-06-04T06:39:19;19.10;60.00
24638;DHT22;12773;50.162;8.548;2023-06-04T06:42:06;19.20;60.90
24638;DHT22;12773;50.162;8.548;2023-06-04T06:44:54;19.30;61.90
24638;DHT22;12773;50.162;8.548;2023-06-04T06:47:42;19.50;62.80
24638;DHT22;12773;50.162;8.548;2023-06-04T06:50:29;19.60;61.70
24638;DHT22;12773;50.162;8.548;2023-06-04T06:53:17;19.50;58.30
24638;DHT22;12773;50.162;8.548;2023-06-04T06:56:05;19.60;61.70
24638;DHT22;12773;50.162;8.548;2023-06-04T06:58:52;19.70;59.50
24638;DHT22;12773;50.162;8.548;2023-06-04T07:01:40;19.80;58.60
24638;DHT22;12773;50.162;8.548;2023-06-04T07:04:28;19.90;59.80
24638;DHT22;12773;50.162;8.548;2023-06-04T07:07:16;20.00;58.70
24638;DHT22;12773;50.162;8.548;2023-06-04T07:10:04;20.10;55.00
24638;DHT22;12773;50.162;8.548;2023-06-04T07:12:52;20.00;55.70
24638;DHT22;12773;50.162;8.548;2023-06-04T07:15:40;20.00;53.80
24638;DHT22;12773;50.162;8.548;2023-06-04T07:18:27;20.00;53.10
24638;DHT22;12773;50.162;8.548;2023-06-04T07:21:15;20.00;53.50
24638;DHT22;12773;50.162;8.548;2023-06-04T07:24:02;20.00;52.30
24638;DHT22;12773;50.162;8.548;2023-06-04T07:26:50;19.90;52.50
24638;DHT22;12773;50.162;8.548;2023-06-04T07:29:38;19.80;52.50
24638;DHT22;12773;50.162;8.548;2023-06-04T07:32:25;20.00;54.20
24638;DHT22;12773;50.162;8.548;2023-06-04T07:35:13;20.10;52.10
24638;DHT22;12773;50.162;8.548;2023-06-04T07:38:00;20.20;53.10
24638;DHT22;12773;50.162;8.548;2023-06-04T07:40:48;20.10;52.00
24638;DHT22;12773;50.162;8.548;2023-06-04T07:43:35;19.90;52.10
24638;DHT22;12773;50.162;8.548;2023-06-04T07:46:23;20.00;52.20
24638;DHT22;12773;50.162;8.548;2023-06-04T07:49:11;20.20;52.70
24638;DHT22;12773;50.162;8.548;2023-06-04T07:51:58;20.10;52.30
24638;DHT22;12773;50.162;8.548;2023-06-04T07:54:46;20.20;53.10
24638;DHT22;12773;50.162;8.548;2023-06-04T07:57:34;20.30;52.60
24638;DHT22;12773;50.162;8.548;2023-06-04T08:00:22;20.40;53.20
24638;DHT22;12773;50.162;8.548;2023-06-04T08:03:10;20.50;53.00
24638;DHT22;12773;50.162;8.548;2023-06-04T08:05:57;20.50;52.30
24638;DHT22;12773;50.162;8.548;2023-06-04T08:08:46;20.50;53.00
24638;DHT22;12773;50.162;8.548;2023-06-04T08:11:34;20.60;52.40
24638;DHT22;12773;50.162;8.548;2023-06-04T08:14:22;20.60;52.80
24638;DHT22;12773;50.162;8.548;2023-06-04T08:17:10;20.60;53.70
24638;DHT22;12773;50.162;8.548;2023-06-04T08:19:58;20.80;53.90
24638;DHT22;12773;50.162;8.548;2023-06-04T08:22:46;20.90;53.70
24638;DHT22;12773;50.162;8.548;2023-06-04T08:25:33;20.90;53.70
24638;DHT22;12773;50.162;8.548;2023-06-04T08:28:21;21.10;54.30
24638;DHT22;12773;50.162;8.548;2023-06-04T08:31:09;21.10;54.30
24638;DHT22;12773;50.162;8.548;2023-06-04T08:33:56;21.30;54.90
24638;DHT22;12773;50.162;8.548;2023-06-04T08:36:44;21.30;53.90
24638;DHT22;12773;50.162;8.548;2023-06-04T08:39:31;21.40;54.40
24638;DHT22;12773;50.162;8.548;2023-06-04T08:42:30;21.50;55.00
24638;DHT22;12773;50.162;8.548;2023-06-04T08:45:20;21.50;54.90
24638;DHT22;12773;50.162;8.548;2023-06-04T08:48:10;21.50;53.60
24638;DHT22;12773;50.162;8.548;2023-06-04T08:50:59;21.40;54.60
24638;DHT22;12773;50.162;8.548;2023-06-04T08:53:47;21.50;54.90
24638;DHT22;12773;50.162;8.548;2023-06-04T08:56:36;21.60;54.60
24638;DHT22;12773;50.162;8.548;2023-06-04T08:59:23;21.60;55.30
24638;DHT22;12773;50.162;8.548;2023-06-04T09:02:11;21.80;55.20
24638;DHT22;12773;50.162;8.548;2023-06-04T09:04:59;22.00;54.70
24638;DHT22;12773;50.162;8.548;2023-06-04T09:07:49;22.20;54.10
24638;DHT22;12773;50.162;8.548;2023-06-04T09:10:38;22.20;52.50
24638;DHT22;12773;50.162;8.548;2023-06-04T09:13:28;22.30;53.60
24638;DHT22;12773;50.162;8.548;2023-06-04T09:16:18;22.30;52.70
24638;DHT22;12773;50.162;8.548;2023-06-04T09:19:06;22.40;53.90
24638;DHT22;12773;50.162;8.548;2023-06-04T09:21:55;22.50;52.80
24638;DHT22;12773;50.162;8.548;2023-06-04T09:24:45;22.50;52.40
24638;DHT22;12773;50.162;8.548;2023-06-04T09:27:40;22.70;52.60
24638;DHT22;12773;50.162;8.548;2023-06-04T09:30:27;22.70;52.10
24638;DHT22;12773;50.162;8.548;2023-06-04T09:33:15;23.00;53.90
24638;DHT22;12773;50.162;8.548;2023-06-04T09:36:02;23.10;52.60
24638;DHT22;12773;50.162;8.548;2023-06-04T09:38:51;23.30;52.80
24638;DHT22;12773;50.162;8.548;2023-06-04T09:41:39;23.50;51.70
24638;DHT22;12773;50.162;8.548;2023-06-04T09:44:28;23.70;54.50
24638;DHT22;12773;50.162;8.548;2023-06-04T09:47:16;23.70;51.80
24638;DHT22;12773;50.162;8.548;2023-06-04T09:50:04;23.60;51.40
24638;DHT22;12773;50.162;8.548;2023-06-04T09:52:53;23.40;51.50
24638;DHT22;12773;50.162;8.548;2023-06-04T09:55:41;23.50;51.20
24638;DHT22;12773;50.162;8.548;2023-06-04T09:58:29;23.70;52.90
24638;DHT22;12773;50.162;8.548;2023-06-04T10:01:17;24.00;52.00
24638;DHT22;12773;50.162;8.548;2023-06-04T10:04:07;24.10;50.30
24638;DHT22;12773;50.162;8.548;2023-06-04T10:06:56;24.40;50.00
24638;DHT22;12773;50.162;8.548;2023-06-04T10:09:44;24.40;50.30
24638;DHT22;12773;50.162;8.548;2023-06-04T10:12:34;24.70;51.30
24638;DHT22;12773;50.162;8.548;2023-06-04T10:15:23;24.60;50.10
24638;DHT22;12773;50.162;8.548;2023-06-04T10:18:11;24.30;48.80
24638;DHT22;12773;50.162;8.548;2023-06-04T10:21:00;24.80;51.10
24638;DHT22;12773;50.162;8.548;2023-06-04T10:23:48;24.90;50.10
24638;DHT22;12773;50.162;8.548;2023-06-04T10:26:37;25.00;48.70
24638;DHT22;12773;50.162;8.548;2023-06-04T10:29:26;24.80;48.20
24638;DHT22;12773;50.162;8.548;2023-06-04T10:32:16;24.80;47.50
24638;DHT22;12773;50.162;8.548;2023-06-04T10:35:05;25.00;50.20
24638;DHT22;12773;50.162;8.548;2023-06-04T10:38:08;25.50;49.80
24638;DHT22;12773;50.162;8.548;2023-06-04T10:40:56;25.30;47.40
24638;DHT22;12773;50.162;8.548;2023-06-04T10:43:46;26.00;51.00
24638;DHT22;12773;50.162;8.548;2023-06-04T10:46:40;25.90;46.60
24638;DHT22;12773;50.162;8.548;2023-06-04T10:49:29;25.70;46.00
24638;DHT22;12773;50.162;8.548;2023-06-04T10:52:18;25.90;46.70
24638;DHT22;12773;50.162;8.548;2023-06-04T10:55:09;26.10;45.70
24638;DHT22;12773;50.162;8.548;2023-06-04T10:57:58;26.20;46.30
24638;DHT22;12773;50.162;8.548;2023-06-04T11:00:47;26.70;46.50
24638;DHT22;12773;50.162;8.548;2023-06-04T11:03:39;27.10;46.10
24638;DHT22;12773;50.162;8.548;2023-06-04T11:06:27;27.60;44.60
24638;DHT22;12773;50.162;8.548;2023-06-04T11:09:15;28.00;43.70
24638;DHT22;12773;50.162;8.548;2023-06-04T11:12:06;28.20;45.50
24638;DHT22;12773;50.162;8.548;2023-06-04T11:14:58;28.00;41.90
24638;DHT22;12773;50.162;8.548;2023-06-04T11:17:53;28.10;43.20
24638;DHT22;12773;50.162;8.548;2023-06-04T11:20:40;27.60;41.60
24638;DHT22;12773;50.162;8.548;2023-06-04T11:23:29;27.50;42.30
24638;DHT22;12773;50.162;8.548;2023-06-04T11:26:17;27.20;41.00
24638;DHT22;12773;50.162;8.548;2023-06-04T11:29:09;27.10;43.10
24638;DHT22;12773;50.162;8.548;2023-06-04T11:31:57;27.40;43.50
24638;DHT22;12773;50.162;8.548;2023-06-04T11:34:45;27.20;42.10
24638;DHT22;12773;50.162;8.548;2023-06-04T11:37:33;27.10;42.50
24638;DHT22;12773;50.162;8.548;2023-06-04T11:40:21;27.00;42.20
24638;DHT22;12773;50.162;8.548;2023-06-04T11:43:10;26.70;42.40
24638;DHT22;12773;50.162;8.548;2023-06-04T11:45:58;26.60;42.60
24638;DHT22;12773;50.162;8.548;2023-06-04T11:48:46;26.70;43.10
24638;DHT22;12773;50.162;8.548;2023-06-04T11:51:33;26.60;42.60
24638;DHT22;12773;50.162;8.548;2023-06-04T11:54:41;26.50;43.30
24638;DHT22;12773;50.162;8.548;2023-06-04T11:57:30;26.60;43.10
24638;DHT22;12773;50.162;8.548;2023-06-04T12:00:18;27.00;43.10
24638;DHT22;12773;50.162;8.548;2023-06-04T12:03:06;26.90;43.40
24638;DHT22;12773;50.162;8.548;2023-06-04T12:05:54;27.20;43.10
24638;DHT22;12773;50.162;8.548;2023-06-04T12:08:53;27.60;42.20
24638;DHT22;12773;50.162;8.548;2023-06-04T12:11:40;27.10;42.00
24638;DHT22;12773;50.162;8.548;2023-06-04T12:14:28;26.60;42.00
24638;DHT22;12773;50.162;8.548;2023-06-04T12:17:16;26.50;41.70
24638;DHT22;12773;50.162;8.548;2023-06-04T12:20:05;26.40;41.70
24638;DHT22;12773;50.162;8.548;2023-06-04T12:22:52;26.50;40.40
24638;DHT22;12773;50.162;8.548;2023-06-04T12:25:40;26.70;40.50
24638;DHT22;12773;50.162;8.548;2023-06-04T12:28:28;27.00;42.60
24638;DHT22;12773;50.162;8.548;2023-06-04T12:31:17;27.00;42.70
24638;DHT22;12773;50.162;8.548;2023-06-04T12:34:04;26.90;42.10
24638;DHT22;12773;50.162;8.548;2023-06-04T12:36:52;27.00;42.20
24638;DHT22;12773;50.162;8.548;2023-06-04T12:39:39;27.10;41.30
24638;DHT22;12773;50.162;8.548;2023-06-04T12:42:27;27.20;41.20
24638;DHT22;12773;50.162;8.548;2023-06-04T12:45:15;27.40;42.20
24638;DHT22;12773;50.162;8.548;2023-06-04T12:48:04;27.20;41.30
24638;DHT22;12773;50.162;8.548;2023-06-04T12:50:52;27.70;43.80
24638;DHT22;12773;50.162;8.548;2023-06-04T12:53:40;27.90;41.00
24638;DHT22;12773;50.162;8.548;2023-06-04T12:56:27;27.60;40.70
24638;DHT22;12773;50.162;8.548;2023-06-04T12:59:15;27.30;41.20
24638;DHT22;12773;50.162;8.548;2023-06-04T13:02:03;27.20;40.90
24638;DHT22;12773;50.162;8.548;2023-06-04T13:04:51;27.00;41.00
24638;DHT22;12773;50.162;8.548;2023-06-04T13:07:39;27.10;41.70
24638;DHT22;12773;50.162;8.548;2023-06-04T13:10:27;27.30;41.20
24638;DHT22;12773;50.162;8.548;2023-06-04T13:13:15;27.30;40.80
24638;DHT22;12773;50.162;8.548;2023-06-04T13:16:03;27.50;40.30
24638;DHT22;12773;50.162;8.548;2023-06-04T13:18:50;27.40;41.00
24638;DHT22;12773;50.162;8.548;2023-06-04T13:21:38;27.30;39.60
24638;DHT22;12773;50.162;8.548;2023-06-04T13:24:26;27.60;40.00
24638;DHT22;12773;50.162;8.548;2023-06-04T13:27:13;27.90;41.00
24638;DHT22;12773;50.162;8.548;2023-06-04T13:30:01;27.50;40.40
24638;DHT22;12773;50.162;8.548;2023-06-04T13:32:49;27.50;41.60
24638;DHT22;12773;50.162;8.548;2023-06-04T13:35:36;28.00;41.90
24638;DHT22;12773;50.162;8.548;2023-06-04T13:38:24;28.10;40.00
24638;DHT22;12773;50.162;8.548;2023-06-04T13:41:11;27.80;39.00
24638;DHT22;12773;50.162;8.548;2023-06-04T13:43:59;28.00;42.80
24638;DHT22;12773;50.162;8.548;2023-06-04T13:46:47;28.50;42.60
24638;DHT22;12773;50.162;8.548;2023-06-04T13:49:34;28.50;40.10
24638;DHT22;12773;50.162;8.548;2023-06-04T13:52:22;28.60;39.60
24638;DHT22;12773;50.162;8.548;2023-06-04T13:55:11;28.60;39.10
24638;DHT22;12773;50.162;8.548;2023-06-04T13:57:59;28.40;38.40
24638;DHT22;12773;50.162;8.548;2023-06-04T14:00:46;28.60;41.00
24638;DHT22;12773;50.162;8.548;2023-06-04T14:03:34;29.10;42.00
24638;DHT22;12773;50.162;8.548;2023-06-04T14:06:22;29.00;40.50
24638;DHT22;12773;50.162;8.548;2023-06-04T14:09:09;29.00;38.80
24638;DHT22;12773;50.162;8.548;2023-06-04T14:11:59;29.00;39.80
24638;DHT22;12773;50.162;8.548;2023-06-04T14:14:46;28.70;39.70
24638;DHT22;12773;50.162;8.548;2023-06-04T14:17:34;28.50;40.00
24638;DHT22;12773;50.162;8.548;2023-06-04T14:20:22;28.80;41.90
24638;DHT22;12773;50.162;8.548;2023-06-04T14:23:09;29.20;39.50
24638;DHT22;12773;50.162;8.548;2023-06-04T14:25:58;29.10;39.00
24638;DHT22;12773;50.162;8.548;2023-06-04T14:28:48;29.20;40.90
24638;DHT22;12773;50.162;8.548;2023-06-04T14:31:35;29.40;38.90
24638;DHT22;12773;50.162;8.548;2023-06-04T14:34:23;28.90;38.80
24638;DHT22;12773;50.162;8.548;2023-06-04T14:37:11;28.60;39.00
24638;DHT22;12773;50.162;8.548;2023-06-04T14:39:58;28.70;39.50
24638;DHT22;12773;50.162;8.548;2023-06-04T14:42:46;29.10;39.60
24638;DHT22;12773;50.162;8.548;2023-06-04T14:45:33;29.10;39.40
24638;DHT22;12773;50.162;8.548;2023-06-04T14:48:21;28.90;38.80
24638;DHT22;12773;50.162;8.548;2023-06-04T14:51:10;28.50;39.00
24638;DHT22;12773;50.162;8.548;2023-06-04T14:53:57;28.20;39.10
24638;DHT22;12773;50.162;8.548;2023-06-04T14:56:45;28.30;40.70
24638;DHT22;12773;50.162;8.548;2023-06-04T14:59:32;28.50;40.10
24638;DHT22;12773;50.162;8.548;2023-06-04T15:02:21;28.70;40.20
24638;DHT22;12773;50.162;8.548;2023-06-04T15:05:08;29.00;39.40
24638;DHT22;12773;50.162;8.548;2023-06-04T15:07:55;29.30;40.10
24638;DHT22;12773;50.162;8.548;2023-06-04T15:10:43;29.80;41.00
24638;DHT22;12773;50.162;8.548;2023-06-04T15:13:30;30.30;39.70
24638;DHT22;12773;50.162;8.548;2023-06-04T15:16:18;30.30;38.30
24638;DHT22;12773;50.162;8.548;2023-06-04T15:19:06;30.30;38.10
24638;DHT22;12773;50.162;8.548;2023-06-04T15:21:54;29.80;37.90
24638;DHT22;12773;50.162;8.548;2023-06-04T15:24:42;29.60;37.40
24638;DHT22;12773;50.162;8.548;2023-06-04T15:27:30;29.80;36.90
24638;DHT22;12773;50.162;8.548;2023-06-04T15:30:17;29.90;37.40
24638;DHT22;12773;50.162;8.548;2023-06-04T15:33:07;29.80;38.50
24638;DHT22;12773;50.162;8.548;2023-06-04T15:35:54;29.40;37.40
24638;DHT22;12773;50.162;8.548;2023-06-04T15:38:42;29.20;37.80
24638;DHT22;12773;50.162;8.548;2023-06-04T15:41:29;29.20;38.00
24638;DHT22;12773;50.162;8.548;2023-06-04T15:44:17;29.10;37.30
24638;DHT22;12773;50.162;8.548;2023-06-04T15:47:05;29.40;38.40
24638;DHT22;12773;50.162;8.548;2023-06-04T15:49:52;29.40;38.10
24638;DHT22;12773;50.162;8.548;2023-06-04T15:52:40;29.10;38.00
24638;DHT22;12773;50.162;8.548;2023-06-04T15:55:27;29.40;37.90
24638;DHT22;12773;50.162;8.548;2023-06-04T15:58:15;29.40;37.60
24638;DHT22;12773;50.162;8.548;2023-06-04T16:01:03;29.50;38.10
24638;DHT22;12773;50.162;8.548;2023-06-04T16:03:51;29.50;38.30
24638;DHT22;12773;50.162;8.548;2023-06-04T16:06:42;29.50;39.10
24638;DHT22;12773;50.162;8.548;2023-06-04T16:09:30;29.80;38.50
24638;DHT22;12773;50.162;8.548;2023-06-04T16:12:17;29.90;38.40
24638;DHT22;12773;50.162;8.548;2023-06-04T16:15:06;30.00;38.20
24638;DHT22;12773;50.162;8.548;2023-06-04T16:17:54;29.80;38.00
24638;DHT22;12773;50.162;8.548;2023-06-04T16:20:42;30.00;38.60
24638;DHT22;12773;50.162;8.548;2023-06-04T16:23:29;29.90;38.30
24638;DHT22;12773;50.162;8.548;2023-06-04T16:26:17;29.90;38.30
24638;DHT22;12773;50.162;8.548;2023-06-04T16:29:04;29.60;38.30
24638;DHT22;12773;50.162;8.548;2023-06-04T16:31:52;29.70;38.70
24638;DHT22;12773;50.162;8.548;2023-06-04T16:34:40;30.10;38.30
24638;DHT22;12773;50.162;8.548;2023-06-04T16:37:27;30.10;38.70
24638;DHT22;12773;50.162;8.548;2023-06-04T16:40:15;29.90;38.00
24638;DHT22;12773;50.162;8.548;2023-06-04T16:43:02;29.70;38.40
24638;DHT22;12773;50.162;8.548;2023-06-04T16:45:51;29.50;38.20
24638;DHT22;12773;50.162;8.548;2023-06-04T16:48:39;29.50;39.70
24638;DHT22;12773;50.162;8.548;2023-06-04T16:51:27;29.10;37.90
24638;DHT22;12773;50.162;8.548;2023-06-04T16:54:14;28.40;38.40
24638;DHT22;12773;50.162;8.548;2023-06-04T16:57:02;28.00;38.50
24638;DHT22;12773;50.162;8.548;2023-06-04T16:59:49;27.80;38.80
24638;DHT22;12773;50.162;8.548;2023-06-04T17:02:37;27.60;39.30
24638;DHT22;12773;50.162;8.548;2023-06-04T17:05:25;27.80;39.10
24638;DHT22;12773;50.162;8.548;2023-06-04T17:08:12;27.70;39.20
24638;DHT22;12773;50.162;8.548;2023-06-04T17:11:00;27.70;39.00
24638;DHT22;12773;50.162;8.548;2023-06-04T17:13:47;28.00;38.80
24638;DHT22;12773;50.162;8.548;2023-06-04T17:16:35;28.30;38.70
24638;DHT22;12773;50.162;8.548;2023-06-04T17:19:23;28.40;38.30
24638;DHT22;12773;50.162;8.548;2023-06-04T17:22:10;28.60;38.20
24638;DHT22;12773;50.162;8.548;2023-06-04T17:24:57;28.60;38.60
24638;DHT22;12773;50.162;8.548;2023-06-04T17:27:45;28.50;37.90
24638;DHT22;12773;50.162;8.548;2023-06-04T17:30:34;28.60;38.00
24638;DHT22;12773;50.162;8.548;2023-06-04T17:33:22;28.70;38.40
24638;DHT22;12773;50.162;8.548;2023-06-04T17:36:10;29.10;38.60
24638;DHT22;12773;50.162;8.548;2023-06-04T17:38:57;29.40;38.50
24638;DHT22;12773;50.162;8.548;2023-06-04T17:41:45;29.40;37.60
24638;DHT22;12773;50.162;8.548;2023-06-04T17:44:32;29.40;37.20
24638;DHT22;12773;50.162;8.548;2023-06-04T17:47:20;29.00;37.00